Terminal Aerodrome Forecast
Issued by NWS Birmingham, AL

Home | Current Version | Previous Version | Text Only | Print | Product List | Glossary On
Versions: 1 2 3 4 5 6 7 8 9 10 11 12 13 14 15
000
FTUS44 KBMX 272320
TAFBHM
TAF
KBHM 272320Z 2800/2824 22010KT P6SM SCT050
     FM280800 21008KT P6SM VCTS OVC025CB
     FM281400 19005KT P6SM VCSH OVC020
     FM281700 23007KT P6SM VCTS BKN035CB=

USA.gov is the U.S. government's official web portal to all federal, state and local government web resources and services.